Time;durP1;ratioP1;P1;durP2;ratioP2;P2;SDS_P1;SDS_P2;PMS_P1;PMS_P2;Temp;Humidity;BMP_temperature;BMP_pressure;BME280_temperature;BME280_humidity;BME280_pressure;Samples;Min_cycle;Max_cycle;Signal;HPM_P1;HPM_P2
2023/08/27 00:00:21;;;;;;;2.47;2.27;;;19.50;99.90;;;19.93;88.21;100094.13;4970329;28;21202;-64
2023/08/27 00:02:48;;;;;;;3.27;2.67;;;19.50;99.90;;;19.95;88.28;100091.31;4960610;28;20659;-63
2023/08/27 00:05:15;;;;;;;3.63;3.07;;;19.50;99.90;;;19.94;88.31;100069.31;4967419;28;20654;-64
2023/08/27 00:07:42;;;;;;;3.80;2.73;;;19.50;99.90;;;19.92;88.55;100047.47;4966163;28;20643;-64
2023/08/27 00:10:10;;;;;;;3.60;2.70;;;19.50;99.90;;;19.90;88.67;100060.09;4965542;28;21006;-63
2023/08/27 00:12:37;;;;;;;4.53;2.70;;;19.40;99.90;;;19.88;88.99;100064.75;4969120;28;20686;-64
2023/08/27 00:15:06;;;;;;;4.57;3.30;;;19.40;99.90;;;19.88;88.78;100064.75;4968171;28;20769;-64
2023/08/27 00:17:33;;;;;;;4.93;3.37;;;19.40;99.90;;;19.90;88.73;100075.97;4964420;28;21208;-64
2023/08/27 00:20:00;;;;;;;3.10;2.83;;;19.40;99.90;;;19.93;89.25;100077.44;4966979;28;20640;-64
2023/08/27 00:22:27;;;;;;;2.97;2.77;;;19.50;99.90;;;19.96;88.80;100085.00;4968071;28;20742;-64
2023/08/27 00:24:54;;;;;;;3.90;3.30;;;19.50;99.90;;;19.98;88.70;100081.16;4966811;28;20647;-65
2023/08/27 00:27:21;;;;;;;3.57;3.37;;;19.50;99.90;;;20.00;88.54;100073.84;4968401;28;20635;-64
2023/08/27 00:29:49;;;;;;;2.43;2.33;;;19.50;99.90;;;20.00;88.47;100065.91;4966814;28;20705;-66
2023/08/27 00:32:16;;;;;;;4.13;3.33;;;19.50;99.90;;;20.01;88.31;100079.97;4968681;28;20659;-64
2023/08/27 00:34:51;;;;;;;4.47;3.33;;;19.50;99.90;;;20.03;88.45;100080.63;4962419;28;21221;-65
2023/08/27 00:37:23;;;;;;;2.97;2.77;;;19.50;99.90;;;20.03;88.32;100072.66;4976472;28;21218;-65
2023/08/27 00:39:50;;;;;;;3.43;3.03;;;19.50;99.90;;;20.03;87.98;100076.16;4965926;28;20670;-66
2023/08/27 00:42:17;;;;;;;3.03;2.83;;;19.60;99.90;;;20.04;88.54;100091.00;4967265;28;20761;-65
2023/08/27 00:44:44;;;;;;;3.77;3.27;;;19.50;99.90;;;20.05;88.22;100091.84;4968600;28;20730;-65
2023/08/27 00:47:12;;;;;;;3.80;3.50;;;19.60;99.90;;;20.03;88.19;100083.25;4966815;28;21266;-65
2023/08/27 00:49:39;;;;;;;3.80;3.13;;;19.60;99.90;;;20.04;88.09;100084.88;4949111;28;20742;-64
2023/08/27 00:52:09;;;;;;;3.43;3.17;;;19.60;99.90;;;20.03;88.17;100078.81;4963914;28;20740;-64
2023/08/27 00:54:36;;;;;;;3.00;2.60;;;19.60;99.90;;;20.04;88.20;100090.19;4966802;28;20709;-65
2023/08/27 00:57:04;;;;;;;3.57;3.27;;;19.60;99.90;;;20.03;88.52;100088.56;4965726;28;20693;-64
2023/08/27 00:59:31;;;;;;;3.93;3.50;;;19.60;99.90;;;20.01;88.23;100091.41;4967969;28;20693;-65
2023/08/27 01:01:59;;;;;;;4.30;3.80;;;19.60;99.90;;;19.99;88.69;100096.06;4968331;28;20949;-65
2023/08/27 01:04:26;;;;;;;3.37;2.97;;;19.50;99.90;;;19.98;89.09;100089.09;4967253;28;20649;-64
2023/08/27 01:06:53;;;;;;;4.00;2.80;;;19.50;99.90;;;19.94;88.87;100089.66;4964950;28;20737;-65
2023/08/27 01:09:37;;;;;;;3.20;2.90;;;19.50;99.90;;;19.91;89.38;100085.53;4968906;28;20631;-65
2023/08/27 01:12:21;;;;;;;3.37;2.70;;;19.50;99.90;;;19.89;89.54;100092.06;4974876;28;20703;-65
2023/08/27 01:14:49;;;;;;;5.90;3.30;;;19.50;99.90;;;19.88;89.60;100085.94;4967113;28;20670;-65
2023/08/27 01:17:22;;;;;;;3.43;2.90;;;19.50;99.90;;;19.91;90.01;100093.47;4964081;28;20631;-65
2023/08/27 01:19:49;;;;;;;2.37;2.20;;;19.50;99.90;;;19.92;89.60;100094.31;4966888;28;20758;-65
2023/08/27 01:22:17;;;;;;;2.40;2.20;;;19.50;99.90;;;19.91;89.32;100079.44;4968189;28;20677;-65
2023/08/27 01:24:44;;;;;;;4.23;2.33;;;19.50;99.90;;;19.87;90.00;100073.69;4962793;28;20705;-62
2023/08/27 01:27:27;;;;;;;3.17;2.37;;;19.40;99.90;;;19.82;89.70;100072.59;4967202;28;21204;-65
2023/08/27 01:30:23;;;;;;;1.87;1.77;;;19.40;99.90;;;19.79;89.83;100057.91;4962974;28;20639;-63
2023/08/27 01:33:06;;;;;;;1.90;1.80;;;19.40;99.90;;;19.80;89.48;100061.38;4963188;28;20766;-64
2023/08/27 01:35:34;;;;;;;2.10;2.00;;;19.40;99.90;;;19.78;89.83;100066.81;4992621;28;20707;-64
2023/08/27 01:38:01;;;;;;;3.40;1.90;;;19.40;99.90;;;19.80;89.61;100061.38;4967082;28;20681;-64
2023/08/27 01:40:28;;;;;;;2.63;2.47;;;19.40;99.90;;;19.81;89.93;100063.00;4967101;28;20643;-65
2023/08/27 01:42:55;;;;;;;2.37;2.17;;;19.40;99.90;;;19.78;89.89;100058.88;4967847;28;20700;-64
2023/08/27 01:45:23;;;;;;;2.00;1.90;;;19.30;99.90;;;19.77;89.91;100062.56;4967363;28;20638;-65
2023/08/27 01:47:50;;;;;;;1.60;1.50;;;19.30;99.90;;;19.73;89.63;100061.28;4966682;28;20776;-64
2023/08/27 01:50:17;;;;;;;6.60;1.67;;;19.30;99.90;;;19.64;90.24;100045.66;4965305;28;20670;-64
2023/08/27 01:52:44;;;;;;;1.80;1.70;;;19.20;99.90;;;19.58;91.22;100031.34;4972465;28;21165;-63
2023/08/27 01:55:11;;;;;;;1.93;1.83;;;19.10;99.90;;;19.52;91.13;100026.78;4962187;28;20682;-64
2023/08/27 01:57:39;;;;;;;2.40;2.20;;;19.10;99.90;;;19.46;91.76;100040.75;4967845;28;20711;-65
2023/08/27 02:00:09;;;;;;;2.03;1.93;;;19.00;99.90;;;19.42;92.12;100057.97;4964585;28;20689;-65
2023/08/27 02:02:36;;;;;;;1.67;1.57;;;19.00;99.90;;;19.39;92.01;100050.41;4966829;28;20665;-62
2023/08/27 02:05:05;;;;;;;2.17;2.00;;;18.90;99.90;;;19.37;92.73;100035.69;4965012;28;20685;-65
2023/08/27 02:07:39;;;;;;;2.37;2.17;;;18.90;99.90;;;19.37;92.70;100015.38;4967631;28;20681;-64
2023/08/27 02:10:07;;;;;;;3.03;2.37;;;18.90;99.90;;;19.40;92.93;100011.53;4964851;28;20647;-64
2023/08/27 02:12:37;;;;;;;2.47;2.37;;;19.00;99.90;;;19.45;93.16;100019.72;4961259;28;20663;-65
2023/08/27 02:15:06;;;;;;;1.80;1.70;;;19.00;99.90;;;19.49;92.28;100013.91;4967002;28;20679;-65
2023/08/27 02:17:38;;;;;;;1.73;1.63;;;19.00;99.90;;;19.51;92.30;100016.34;4965485;28;20689;-63
2023/08/27 02:20:07;;;;;;;2.50;2.30;;;19.10;99.90;;;19.53;91.79;100006.44;4962977;28;20650;-66
2023/08/27 02:22:34;;;;;;;2.17;2.07;;;19.10;99.90;;;19.56;92.11;100006.06;4966146;28;20693;-64
2023/08/27 02:25:01;;;;;;;2.10;2.00;;;19.10;99.90;;;19.56;91.89;100020.13;4966783;28;20734;-64
2023/08/27 02:27:28;;;;;;;2.93;2.23;;;19.10;99.90;;;19.60;92.11;100029.34;4967867;28;20635;-64
2023/08/27 02:29:55;;;;;;;2.17;2.07;;;19.10;99.90;;;19.61;91.59;100035.44;4967036;28;20663;-64
2023/08/27 02:32:23;;;;;;;1.53;1.43;;;19.10;99.90;;;19.61;91.57;100036.28;4968137;28;20651;-64
2023/08/27 02:34:50;;;;;;;2.77;1.90;;;19.20;99.90;;;19.60;91.59;100045.22;4959538;28;20671;-63
2023/08/27 02:37:17;;;;;;;1.93;1.83;;;19.10;99.90;;;19.58;91.30;100028.69;4964527;28;20635;-65
2023/08/27 02:39:44;;;;;;;2.97;2.10;;;19.20;99.90;;;19.59;91.61;100032.16;4966609;28;21040;-66
2023/08/27 02:42:14;;;;;;;4.73;2.00;;;19.10;99.90;;;19.59;91.79;100032.97;4967131;28;20655;-65
2023/08/27 02:44:40;;;;;;;1.67;1.57;;;19.10;99.90;;;19.60;91.89;100024.03;4968228;28;20718;-64
2023/08/27 02:47:07;;;;;;;2.73;2.20;;;19.10;99.90;;;19.54;91.47;100016.00;4967031;28;20628;-65
2023/08/27 02:49:34;;;;;;;2.47;2.27;;;19.10;99.90;;;19.51;91.60;100013.72;4965452;28;21124;-64
2023/08/27 02:52:01;;;;;;;1.90;1.80;;;19.10;99.90;;;19.42;92.12;100018.31;4967085;28;20655;-63
2023/08/27 02:54:28;;;;;;;1.67;1.67;;;19.00;99.90;;;19.30;92.72;100017.06;4967193;28;20675;-65
2023/08/27 02:56:55;;;;;;;2.03;1.93;;;18.90;99.90;;;19.18;93.30;100007.94;4969276;28;21019;-64
2023/08/27 02:59:22;;;;;;;2.03;1.93;;;18.80;99.90;;;19.14;93.66;100028.63;4971532;28;20630;-64
2023/08/27 03:01:52;;;;;;;2.10;2.00;;;18.70;99.90;;;19.13;93.85;100021.69;4971184;28;21050;-64
2023/08/27 03:04:20;;;;;;;2.40;2.27;;;18.70;99.90;;;19.16;94.34;100028.44;4960663;28;20737;-65
2023/08/27 03:06:47;;;;;;;3.57;2.90;;;18.70;99.90;;;19.18;94.21;100026.44;4976182;28;20730;-65
2023/08/27 03:09:15;;;;;;;8.20;2.97;;;18.80;99.90;;;19.21;94.08;100026.06;4969856;28;21204;-65
2023/08/27 03:11:44;;;;;;;3.40;2.57;;;18.80;99.90;;;19.22;93.62;100025.06;4964200;28;20671;-65
2023/08/27 03:14:11;;;;;;;2.57;2.37;;;18.80;99.90;;;19.23;93.73;100029.34;4970468;28;20626;-65
2023/08/27 03:16:38;;;;;;;2.87;2.50;;;18.80;99.90;;;19.22;93.77;100015.31;4969108;28;20635;-65
2023/08/27 03:19:06;;;;;;;2.70;2.50;;;18.80;99.90;;;19.23;93.70;100016.13;4966707;28;20639;-66
2023/08/27 03:21:33;;;;;;;2.53;2.33;;;18.80;99.90;;;19.25;93.91;100024.72;4967184;28;20720;-65
2023/08/27 03:24:00;;;;;;;2.20;2.10;;;18.90;99.90;;;19.26;93.67;100013.13;4968816;28;20627;-63
2023/08/27 03:26:27;;;;;;;2.80;2.60;;;18.90;99.90;;;19.27;93.84;100018.22;4968669;28;21003;-64
2023/08/27 03:28:53;;;;;;;2.87;2.57;;;18.90;99.90;;;19.27;93.61;99997.06;4968526;28;20689;-65
2023/08/27 03:31:20;;;;;;;2.80;2.60;;;18.90;99.90;;;19.27;93.17;99980.41;4970062;28;20997;-65
2023/08/27 03:33:47;;;;;;;2.80;2.57;;;18.90;99.90;;;19.26;93.53;100000.72;4963611;28;20698;-64
2023/08/27 03:36:14;;;;;;;2.40;2.30;;;18.90;99.90;;;19.28;93.43;100013.78;4967631;28;20682;-64
2023/08/27 03:38:41;;;;;;;2.77;2.57;;;18.90;99.90;;;19.27;93.35;100005.00;4960808;28;20638;-65
2023/08/27 03:41:11;;;;;;;2.90;2.70;;;18.90;99.90;;;19.29;93.20;99983.69;4969177;28;21068;-64
2023/08/27 03:43:38;;;;;;;2.67;2.47;;;18.90;99.90;;;19.32;93.36;99996.53;4967617;28;21222;-64
2023/08/27 03:46:05;;;;;;;3.03;2.73;;;18.90;99.90;;;19.27;93.16;99996.28;4969994;28;20763;-65
2023/08/27 03:48:32;;;;;;;2.77;2.57;;;18.90;99.90;;;19.24;93.08;99996.63;4964562;28;21200;-63
2023/08/27 03:50:59;;;;;;;4.17;2.67;;;18.80;99.90;;;19.23;93.54;99985.22;4969517;28;20671;-64
2023/08/27 03:53:25;;;;;;;3.40;3.10;;;18.80;99.90;;;19.21;93.72;99996.97;4969254;28;20638;-64
2023/08/27 03:55:53;;;;;;;2.60;2.40;;;18.80;99.90;;;19.20;93.53;99993.53;4967821;28;20743;-64
2023/08/27 03:58:20;;;;;;;3.17;2.70;;;18.80;99.90;;;19.21;93.63;99994.31;4970021;28;21188;-65
2023/08/27 04:00:49;;;;;;;2.63;2.47;;;18.80;99.90;;;19.18;93.53;100000.00;4969364;28;20639;-65
2023/08/27 04:03:23;;;;;;;4.23;2.70;;;18.80;99.90;;;19.16;93.47;100002.00;4961320;28;21196;-64
2023/08/27 04:05:50;;;;;;;7.53;3.03;;;18.80;99.90;;;19.11;93.79;100005.19;4968518;28;20699;-65
2023/08/27 04:08:17;;;;;;;2.50;2.30;;;18.70;99.90;;;19.02;93.92;100008.06;4967462;28;20701;-65
2023/08/27 04:10:52;;;;;;;2.57;2.37;;;18.60;99.90;;;18.93;94.24;99985.38;4966498;28;21199;-65
2023/08/27 04:13:20;;;;;;;2.13;2.00;;;18.50;99.90;;;18.88;94.57;99975.31;4970420;28;20635;-64
2023/08/27 04:16:02;;;;;;;2.20;2.10;;;18.50;99.90;;;18.85;94.68;99975.66;4969306;28;20728;-65
2023/08/27 04:18:29;;;;;;;2.63;2.40;;;18.40;99.90;;;18.83;94.87;99979.50;4966620;28;20624;-64
2023/08/27 04:20:56;;;;;;;2.63;2.33;;;18.40;99.90;;;18.76;94.58;99973.28;4961180;28;20651;-64
2023/08/27 04:23:23;;;;;;;2.90;2.27;;;18.40;99.90;;;18.69;94.64;99953.84;4967007;28;21261;-65
2023/08/27 04:25:50;;;;;;;2.33;2.23;;;18.30;99.90;;;18.67;95.12;99964.63;4968295;28;20696;-65
2023/08/27 04:28:18;;;;;;;2.43;2.23;;;18.20;99.90;;;18.66;95.28;99968.25;4961075;28;20718;-65
2023/08/27 04:30:48;;;;;;;2.47;2.27;;;18.30;99.90;;;18.67;95.13;99971.72;4966479;28;20657;-64
2023/08/27 04:33:18;;;;;;;2.50;2.33;;;18.30;99.90;;;18.67;95.59;99972.53;4961018;28;20730;-64
2023/08/27 04:35:50;;;;;;;2.63;2.43;;;18.30;99.90;;;18.69;95.83;99986.41;4965989;28;20678;-63
2023/08/27 04:38:17;;;;;;;3.07;2.90;;;18.30;99.90;;;18.72;96.21;99985.22;4965840;28;20688;-65
2023/08/27 04:40:49;;;;;;;2.63;2.43;;;18.30;99.90;;;18.79;95.79;99980.84;4967814;28;20670;-64
2023/08/27 04:43:16;;;;;;;2.87;2.67;;;18.40;99.90;;;18.85;95.64;99980.13;4961009;28;20688;-65
2023/08/27 04:45:43;;;;;;;6.60;2.70;;;18.40;99.90;;;18.91;95.45;99974.16;4969391;28;20632;-65
2023/08/27 04:48:10;;;;;;;2.37;2.20;;;18.50;99.90;;;18.94;95.28;99964.03;4966970;28;20658;-65
2023/08/27 04:50:38;;;;;;;2.50;2.33;;;18.50;99.90;;;18.99;94.99;99960.84;4964126;28;21200;-65
2023/08/27 04:53:08;;;;;;;2.83;2.57;;;18.60;99.90;;;19.01;94.42;99962.31;4967673;28;21172;-64
2023/08/27 04:55:36;;;;;;;2.83;2.53;;;18.60;99.90;;;19.04;94.54;99947.88;4966490;28;21022;-65
2023/08/27 04:58:07;;;;;;;3.30;3.00;;;18.60;99.90;;;19.07;94.35;99964.25;4975376;28;21250;-64
2023/08/27 05:00:34;;;;;;;3.40;2.70;;;18.70;99.90;;;19.08;94.34;99973.78;4972790;28;20735;-64
2023/08/27 05:03:02;;;;;;;2.53;2.40;;;18.70;99.90;;;19.06;94.66;99973.16;4967209;28;21158;-65
2023/08/27 05:05:29;;;;;;;2.40;2.20;;;18.70;99.90;;;19.07;94.91;99979.28;4966679;28;20650;-64
2023/08/27 05:07:58;;;;;;;2.80;2.60;;;18.70;99.90;;;19.07;95.05;99987.22;4964966;28;20631;-64
2023/08/27 05:10:25;;;;;;;2.77;2.57;;;18.70;99.90;;;19.08;94.99;99983.56;4966522;28;20643;-64
2023/08/27 05:12:52;;;;;;;2.53;2.37;;;18.70;99.90;;;19.12;94.65;99984.84;4969127;28;20702;-65
2023/08/27 05:15:20;;;;;;;2.60;2.50;;;18.70;99.90;;;19.16;94.40;99988.78;4987185;28;20735;-65
2023/08/27 05:17:50;;;;;;;2.57;2.37;;;18.80;99.90;;;19.18;94.48;99987.59;4974093;28;20631;-65
2023/08/27 05:20:17;;;;;;;2.83;2.70;;;18.80;99.90;;;19.22;93.96;99977.47;4958162;28;20640;-65
2023/08/27 05:22:46;;;;;;;2.77;2.57;;;18.80;99.90;;;19.26;93.95;99974.28;4968290;28;20639;-64
2023/08/27 05:25:13;;;;;;;2.60;2.33;;;18.80;99.90;;;19.33;94.06;99979.66;4959815;28;21235;-65
2023/08/27 05:27:44;;;;;;;2.20;2.07;;;18.90;99.90;;;19.37;93.36;99957.16;4966064;28;20738;-64
2023/08/27 05:30:14;;;;;;;2.50;2.40;;;19.00;99.90;;;19.45;93.27;99959.72;4980269;28;20647;-65
2023/08/27 05:32:41;;;;;;;2.70;2.50;;;19.00;99.90;;;19.50;93.06;99960.00;4965930;28;21256;-64
2023/08/27 05:35:09;;;;;;;2.40;2.20;;;19.10;99.90;;;19.55;92.08;99959.44;4958217;28;20672;-64
2023/08/27 05:37:37;;;;;;;3.30;3.00;;;19.10;99.90;;;19.58;92.25;99956.41;4960937;28;20633;-64
2023/08/27 05:40:05;;;;;;;3.10;2.80;;;19.10;99.90;;;19.61;92.02;99948.94;4966931;28;20663;-64
2023/08/27 05:42:33;;;;;;;2.47;2.27;;;19.20;99.90;;;19.64;91.82;99958.31;4966864;28;20655;-64
2023/08/27 05:44:59;;;;;;;2.67;2.47;;;19.20;99.90;;;19.67;91.74;99969.38;4968585;28;21226;-64
2023/08/27 05:47:27;;;;;;;2.33;2.23;;;19.30;99.90;;;19.71;91.39;99973.28;4966976;28;20627;-64
2023/08/27 05:49:56;;;;;;;2.33;2.23;;;19.20;99.90;;;19.75;91.36;99968.44;4960321;28;21305;-64
2023/08/27 05:52:23;;;;;;;2.53;2.43;;;19.30;99.90;;;19.76;91.28;99964.81;4968215;28;20679;-65
2023/08/27 05:54:50;;;;;;;2.67;2.43;;;19.30;99.90;;;19.79;91.27;99965.25;4961910;28;21280;-64
2023/08/27 05:57:20;;;;;;;2.10;1.93;;;19.30;99.90;;;19.82;90.57;99956.94;4963906;28;20726;-65
2023/08/27 05:59:47;;;;;;;2.00;1.90;;;19.40;99.90;;;19.84;90.73;99957.59;4966678;28;20670;-65
2023/08/27 06:02:14;;;;;;;2.20;2.03;;;19.40;99.90;;;19.85;90.50;99953.91;4966193;28;20749;-64
2023/08/27 06:04:41;;;;;;;1.70;1.60;;;19.40;99.90;;;19.84;90.66;99951.47;4961985;28;20643;-65
2023/08/27 06:07:09;;;;;;;2.50;2.23;;;19.40;99.90;;;19.83;90.67;99952.44;4965356;28;20635;-65
2023/08/27 06:09:39;;;;;;;2.13;1.93;;;19.40;99.90;;;19.86;90.87;99960.84;4965144;28;20734;-64
2023/08/27 06:12:07;;;;;;;5.80;2.30;;;19.40;99.90;;;19.83;90.58;99961.22;4964943;28;21227;-65
2023/08/27 06:14:34;;;;;;;2.80;2.40;;;19.40;99.90;;;19.86;90.65;99957.38;4967144;28;21012;-65
2023/08/27 06:17:01;;;;;;;5.20;2.90;;;19.40;99.90;;;19.87;90.64;99964.31;4963054;28;20668;-64
2023/08/27 06:19:28;;;;;;;2.67;2.13;;;19.50;99.90;;;19.85;90.37;99974.25;4964644;28;20746;-64
2023/08/27 06:22:13;;;;;;;2.10;2.00;;;19.40;99.90;;;19.80;91.10;99976.66;4967208;28;21273;-65
2023/08/27 06:24:44;;;;;;;3.43;3.10;;;19.40;99.90;;;19.74;90.83;99982.69;4967018;28;20636;-64
2023/08/27 06:27:14;;;;;;;3.70;2.30;;;19.30;99.90;;;19.64;91.24;99961.81;4967840;28;20647;-65
2023/08/27 06:29:45;;;;;;;2.77;2.53;;;19.20;99.90;;;19.61;91.66;99971.94;4968151;28;20734;-64
2023/08/27 06:32:13;;;;;;;2.70;2.50;;;19.20;99.90;;;19.59;92.01;99995.13;4970803;28;20686;-65
2023/08/27 06:34:40;;;;;;;2.70;2.50;;;19.20;99.90;;;19.52;92.34;100000.31;4963146;28;21096;-63
2023/08/27 06:37:07;;;;;;;3.07;2.30;;;19.10;99.90;;;19.46;92.55;99993.13;4964719;28;20757;-65
2023/08/27 06:39:34;;;;;;;3.10;2.83;;;19.10;99.90;;;19.39;92.64;99978.13;4965890;28;20737;-64
2023/08/27 06:42:01;;;;;;;2.90;2.70;;;19.00;99.90;;;19.39;93.14;99984.25;4966022;28;20750;-65
2023/08/27 06:44:28;;;;;;;2.47;2.30;;;19.00;99.90;;;19.38;93.46;99985.25;4969705;28;21187;-64
2023/08/27 06:46:55;;;;;;;2.63;2.43;;;19.00;99.90;;;19.34;93.61;99987.44;4967379;28;20674;-65
2023/08/27 06:49:23;;;;;;;2.57;2.37;;;18.90;99.90;;;19.34;94.62;99987.44;4965828;28;20647;-65
2023/08/27 06:51:50;;;;;;;3.60;3.30;;;18.90;99.90;;;19.37;94.31;99980.16;4972964;28;20694;-65
2023/08/27 06:54:17;;;;;;;3.53;3.23;;;19.00;99.90;;;19.42;94.78;99989.19;4962665;28;21004;-65
2023/08/27 06:56:45;;;;;;;2.87;2.67;;;19.00;99.90;;;19.48;94.23;100003.50;4969902;28;20666;-64
2023/08/27 06:59:12;;;;;;;3.47;2.50;;;19.10;99.90;;;19.51;93.64;100011.06;4973787;28;21152;-65
2023/08/27 07:01:39;;;;;;;2.87;2.67;;;19.10;99.90;;;19.51;93.41;100017.19;4971109;28;21103;-65
2023/08/27 07:04:07;;;;;;;4.73;2.80;;;19.10;99.90;;;19.56;93.56;100027.22;4968204;28;20901;-65
2023/08/27 07:06:34;;;;;;;2.73;2.40;;;19.10;99.90;;;19.63;93.25;100030.78;4965056;28;21276;-65
2023/08/27 07:09:02;;;;;;;2.37;2.27;;;19.20;99.90;;;19.68;93.13;100023.94;4969221;28;20726;-66
2023/08/27 07:11:29;;;;;;;2.30;2.10;;;19.20;99.90;;;19.76;91.99;100018.53;4967668;28;20720;-65
2023/08/27 07:13:56;;;;;;;2.17;2.03;;;19.30;99.90;;;19.86;90.72;100013.81;4969610;28;20666;-65
2023/08/27 07:16:23;;;;;;;5.03;2.10;;;19.40;99.90;;;19.95;88.42;100003.94;4967638;28;21236;-66
2023/08/27 07:18:50;;;;;;;2.03;1.93;;;19.50;99.90;;;19.95;86.85;99988.84;4971114;28;20635;-65
2023/08/27 07:21:17;;;;;;;2.03;1.93;;;19.50;99.90;;;19.97;86.25;99983.38;4966305;28;20675;-65
2023/08/27 07:23:44;;;;;;;2.20;2.10;;;19.50;99.90;;;20.01;86.39;99989.94;4969333;28;21203;-64
2023/08/27 07:26:11;;;;;;;3.53;2.73;;;19.60;99.90;;;20.04;86.84;99990.38;4967896;28;20647;-65
2023/08/27 07:28:38;;;;;;;2.97;2.30;;;19.60;99.90;;;20.07;87.63;99978.59;4970068;28;20639;-65
2023/08/27 07:31:05;;;;;;;2.83;2.63;;;19.60;99.90;;;20.09;87.51;99990.66;4967689;28;20671;-66
2023/08/27 07:33:34;;;;;;;2.77;2.57;;;19.70;99.90;;;20.20;87.90;99991.16;4970719;28;20639;-65
2023/08/27 07:36:01;;;;;;;2.43;2.30;;;19.70;99.90;;;20.28;87.09;100001.69;4963680;28;20681;-65
2023/08/27 07:38:28;;;;;;;3.10;2.80;;;19.80;99.90;;;20.40;87.31;99994.91;4962777;28;20726;-65
2023/08/27 07:40:54;;;;;;;2.70;2.50;;;20.00;99.90;;;20.56;86.38;100002.59;4968548;28;20692;-66
2023/08/27 07:43:22;;;;;;;2.67;2.50;;;20.10;99.90;;;20.75;85.31;100007.25;4966124;28;20647;-65
2023/08/27 07:45:49;;;;;;;2.70;2.23;;;20.30;99.90;;;21.08;84.69;100004.91;4965075;28;20647;-65
2023/08/27 07:48:15;;;;;;;2.70;2.50;;;20.60;99.90;;;21.46;81.80;99999.06;4970006;28;20638;-65
2023/08/27 07:50:42;;;;;;;2.50;2.30;;;20.90;99.90;;;21.91;79.71;99996.84;4965718;28;20647;-64
2023/08/27 07:53:10;;;;;;;2.70;2.50;;;21.40;99.90;;;22.18;77.38;100004.72;4970109;28;20666;-65
2023/08/27 07:55:36;;;;;;;2.40;2.20;;;21.70;99.90;;;22.27;75.64;100013.31;4965535;28;20675;-67
2023/08/27 07:58:03;;;;;;;2.70;2.30;;;21.80;99.90;;;22.27;74.76;100013.31;4969163;28;20631;-67
2023/08/27 08:00:30;;;;;;;1.97;1.87;;;21.80;99.90;;;22.14;74.27;100010.63;4966776;28;20697;-67
2023/08/27 08:02:57;;;;;;;2.13;1.93;;;21.70;99.90;;;22.04;74.64;100020.81;4970355;28;20639;-68
2023/08/27 08:05:24;;;;;;;2.53;2.33;;;21.60;99.90;;;21.84;74.38;100031.34;4962904;28;20651;-67
2023/08/27 08:07:52;;;;;;;1.67;1.57;;;21.40;99.90;;;21.70;74.63;100039.41;4969031;28;20680;-67
2023/08/27 08:10:20;;;;;;;2.07;1.87;;;21.30;99.90;;;21.54;74.47;100044.00;4978103;28;20643;-66
2023/08/27 08:12:52;;;;;;;1.23;1.23;;;21.20;99.90;;;21.42;74.86;100050.84;4970000;28;20651;-67
2023/08/27 08:15:20;;;;;;;1.60;1.50;;;21.00;99.90;;;21.36;75.21;100048.97;4969101;28;20635;-68
2023/08/27 08:17:46;;;;;;;1.63;1.57;;;20.90;99.90;;;21.32;75.29;100038.94;5018338;28;20738;-68
2023/08/27 08:20:14;;;;;;;2.30;2.10;;;20.90;99.90;;;21.33;75.26;100025.50;4969691;28;20663;-68
2023/08/27 08:22:41;;;;;;;2.13;1.77;;;20.90;99.90;;;21.37;74.93;100015.31;4969890;28;20646;-68
2023/08/27 08:25:08;;;;;;;1.73;1.63;;;20.90;99.90;;;21.44;74.50;100032.94;4966973;28;20742;-68
2023/08/27 08:27:35;;;;;;;1.47;1.47;;;21.00;99.90;;;21.56;74.01;100031.38;4969146;28;20684;-67
2023/08/27 08:30:04;;;;;;;1.63;1.53;;;21.10;99.90;;;21.73;72.92;100037.16;4963342;28;20666;-66
2023/08/27 08:32:31;;;;;;;2.67;1.90;;;21.30;99.90;;;21.93;73.04;100035.47;4966621;28;20670;-65
2023/08/27 08:34:58;;;;;;;1.20;1.20;;;21.50;99.90;;;22.25;72.27;100032.09;4965019;28;21231;-66
2023/08/27 08:37:26;;;;;;;1.93;1.83;;;21.80;99.90;;;23.27;70.09;100040.66;4968264;28;20792;-66
2023/08/27 08:39:53;;;;;;;1.53;1.43;;;22.60;99.90;;;24.21;64.46;100036.56;4962539;28;20643;-66
2023/08/27 08:42:34;;;;;;;2.10;2.00;;;23.70;99.90;;;24.74;63.96;100036.25;4964744;28;20663;-67
2023/08/27 08:45:15;;;;;;;1.33;1.33;;;24.30;99.90;;;24.96;61.38;100057.03;4965938;28;20632;-66
2023/08/27 08:47:44;;;;;;;1.50;1.40;;;24.60;99.90;;;24.96;60.42;100064.25;4966993;28;20720;-66
2023/08/27 08:50:13;;;;;;;1.60;1.60;;;24.60;99.90;;;24.86;60.69;100059.38;4968201;28;21280;-66
2023/08/27 08:52:45;;;;;;;1.40;1.33;;;24.40;99.90;;;24.75;61.18;100061.91;4969633;28;21019;-66
2023/08/27 08:55:15;;;;;;;1.60;1.50;;;24.30;99.90;;;24.79;61.91;100055.13;4968595;28;20641;-66
2023/08/27 08:57:58;;;;;;;1.30;1.30;;;24.40;99.90;;;24.97;62.06;100069.34;4969213;28;20725;-66
2023/08/27 09:00:26;;;;;;;1.77;1.67;;;24.50;99.90;;;25.02;61.30;100053.50;4965734;28;20646;-66
2023/08/27 09:02:54;;;;;;;1.27;1.27;;;24.60;99.90;;;25.14;59.93;100045.59;4968396;28;21110;-65
2023/08/27 09:05:23;;;;;;;1.80;1.70;;;24.70;99.90;;;25.22;60.63;100032.78;4966166;28;20764;-66
2023/08/27 09:07:51;;;;;;;1.63;1.53;;;24.80;99.90;;;25.40;60.30;100043.53;4967421;28;20639;-64
2023/08/27 09:10:19;;;;;;;1.67;1.57;;;24.90;99.90;;;25.61;58.98;100044.97;4963539;28;20643;-65
2023/08/27 09:12:47;;;;;;;1.53;1.43;;;25.10;99.90;;;25.84;58.41;100033.63;4967875;28;20647;-65
2023/08/27 09:15:14;;;;;;;1.47;1.47;;;25.30;99.90;;;26.04;57.30;100035.03;4964902;28;20726;-66
2023/08/27 09:17:41;;;;;;;1.80;1.70;;;25.50;99.90;;;25.83;57.41;100046.16;4968131;28;21235;-67
2023/08/27 09:20:08;;;;;;;1.60;1.50;;;25.40;99.90;;;25.90;58.10;100038.91;4966046;28;20675;-66
2023/08/27 09:22:35;;;;;;;1.77;1.43;;;25.40;99.90;;;26.03;56.98;100041.41;4968570;28;20647;-66
2023/08/27 09:25:04;;;;;;;1.60;1.50;;;25.50;99.90;;;25.97;57.09;100044.16;4965652;28;21012;-64
2023/08/27 09:27:32;;;;;;;1.83;1.73;;;25.50;99.90;;;25.76;58.13;100040.09;4967656;28;21069;-66
2023/08/27 09:30:00;;;;;;;2.30;2.10;;;25.30;99.90;;;25.59;59.31;100035.56;4967626;28;20642;-67
2023/08/27 09:32:28;;;;;;;1.60;1.50;;;25.20;99.90;;;25.46;59.15;100031.16;4967430;28;20659;-66
2023/08/27 09:34:58;;;;;;;2.07;1.97;;;25.00;99.90;;;25.30;59.52;100011.16;4966424;28;21200;-67
2023/08/27 09:37:27;;;;;;;2.00;1.80;;;24.90;99.90;;;25.23;58.95;100005.06;4966474;28;20698;-66
2023/08/27 09:39:55;;;;;;;1.60;1.60;;;24.80;99.90;;;25.19;59.38;99985.16;4967858;28;20658;-64
2023/08/27 09:42:22;;;;;;;1.40;1.40;;;24.70;99.90;;;25.14;59.91;99992.22;4965668;28;21091;-66
2023/08/27 09:44:51;;;;;;;2.50;2.03;;;24.60;99.90;;;25.05;59.35;99985.50;4964539;28;20623;-64
2023/08/27 09:47:37;;;;;;;1.57;1.50;;;24.60;99.90;;;24.93;59.55;99984.59;4954966;28;20647;-66
2023/08/27 09:50:17;;;;;;;1.90;1.70;;;24.50;99.90;;;24.80;59.67;99988.19;4963540;28;20643;-64
2023/08/27 09:52:45;;;;;;;3.00;1.57;;;24.30;99.90;;;24.80;60.73;99987.38;4966512;28;20666;-65
2023/08/27 09:55:16;;;;;;;2.33;1.67;;;24.30;99.90;;;24.96;60.68;99976.97;4965416;28;20701;-66
2023/08/27 09:57:49;;;;;;;1.30;1.20;;;24.40;99.90;;;25.08;60.45;99975.22;4968050;28;20752;-66
2023/08/27 10:00:18;;;;;;;3.83;1.30;;;24.60;99.90;;;25.03;59.54;99977.72;4967940;28;20673;-67
2023/08/27 10:02:49;;;;;;;1.60;1.50;;;24.60;99.90;;;24.94;59.70;99980.88;4967079;28;20666;-67
2023/08/27 10:05:16;;;;;;;3.50;1.63;;;24.50;99.90;;;25.06;60.02;99984.50;4958902;28;21011;-66
2023/08/27 10:07:59;;;;;;;1.87;1.70;;;24.50;99.90;;;25.17;58.70;99979.22;4966162;28;20639;-68
2023/08/27 10:10:28;;;;;;;1.07;1.07;;;24.70;99.90;;;25.18;57.24;99986.22;4963256;28;21014;-67
2023/08/27 10:12:56;;;;;;;1.27;1.17;;;24.80;99.90;;;25.16;56.79;99988.28;4964936;28;20658;-68
2023/08/27 10:15:24;;;;;;;1.23;1.23;;;24.70;99.90;;;25.12;56.84;99981.75;4964077;28;20643;-67
2023/08/27 10:17:56;;;;;;;1.43;1.33;;;24.70;99.90;;;25.12;56.53;99980.94;4962229;28;20675;-68
2023/08/27 10:20:23;;;;;;;1.30;1.30;;;24.70;99.90;;;25.21;56.64;99974.28;4964854;28;20708;-68